Time;durP1;ratioP1;P1;durP2;ratioP2;P2;SDS_P1;SDS_P2;PMS_P1;PMS_P2;Temp;Humidity;BMP_temperature;BMP_pressure;BME280_temperature;BME280_humidity;BME280_pressure;Samples;Min_cycle;Max_cycle;Signal;HPM_P1;HPM_P2
2023/10/25 00:02:19;;;;;;;2.80;2.43;;;12.40;99.90;;;;;;4999024;28;20644;-74
2023/10/25 00:04:45;;;;;;;2.57;2.37;;;12.50;99.90;;;;;;4999475;28;20233;-74
2023/10/25 00:07:11;;;;;;;3.80;2.30;;;12.50;99.90;;;;;;4999001;28;20640;-73
2023/10/25 00:09:36;;;;;;;3.17;2.73;;;12.40;99.90;;;;;;5014885;28;20176;-73
2023/10/25 00:12:02;;;;;;;3.33;2.90;;;12.30;99.90;;;;;;5014782;28;20291;-73
2023/10/25 00:14:28;;;;;;;2.33;2.20;;;12.30;99.90;;;;;;4998456;28;20195;-73
2023/10/25 00:16:54;;;;;;;2.40;2.10;;;12.20;99.90;;;;;;5014676;28;20211;-74
2023/10/25 00:19:19;;;;;;;4.13;3.43;;;12.30;99.90;;;;;;5014680;28;20169;-74
2023/10/25 00:21:45;;;;;;;3.40;3.10;;;12.20;99.90;;;;;;5014742;28;20225;-74
2023/10/25 00:24:11;;;;;;;2.43;2.30;;;12.10;99.90;;;;;;5014541;28;20258;-73
2023/10/25 00:26:36;;;;;;;4.73;3.00;;;12.20;99.90;;;;;;5014883;28;20174;-74
2023/10/25 00:29:02;;;;;;;5.50;3.53;;;12.20;99.90;;;;;;5014431;28;20658;-73
2023/10/25 00:31:28;;;;;;;4.03;3.70;;;12.20;99.90;;;;;;5032140;28;20305;-74
2023/10/25 00:33:54;;;;;;;2.53;2.33;;;12.20;99.90;;;;;;5013582;28;20233;-75
2023/10/25 00:36:20;;;;;;;3.17;2.53;;;12.20;99.90;;;;;;5031931;28;20201;-74
2023/10/25 00:38:45;;;;;;;2.60;2.40;;;12.20;99.90;;;;;;5014456;28;20494;-73
2023/10/25 00:41:11;;;;;;;4.10;3.20;;;12.10;99.90;;;;;;5014279;28;20577;-73
2023/10/25 00:43:36;;;;;;;3.13;2.83;;;12.20;99.90;;;;;;5014363;28;20172;-73
2023/10/25 00:46:12;;;;;;;5.63;3.80;;;12.10;99.90;;;;;;5032071;28;20175;-73
2023/10/25 00:48:44;;;;;;;3.90;3.60;;;12.00;99.90;;;;;;5014216;28;20174;-73
2023/10/25 00:51:11;;;;;;;3.83;3.47;;;12.00;99.90;;;;;;5014407;28;20489;-74
2023/10/25 00:53:41;;;;;;;5.10;4.50;;;12.00;99.90;;;;;;5032329;28;20416;-74
2023/10/25 00:56:10;;;;;;;3.93;3.53;;;12.20;99.90;;;;;;5014163;28;20552;-74
2023/10/25 00:58:38;;;;;;;2.90;2.70;;;12.20;99.90;;;;;;5014229;28;20497;-74
2023/10/25 01:01:04;;;;;;;3.10;2.90;;;12.20;99.90;;;;;;5014169;28;20430;-74
2023/10/25 01:03:30;;;;;;;3.70;3.40;;;12.20;99.90;;;;;;5014275;28;20402;-74
2023/10/25 01:05:55;;;;;;;5.57;3.70;;;12.30;99.90;;;;;;5014112;28;20904;-74
2023/10/25 01:08:22;;;;;;;4.50;4.13;;;12.30;99.90;;;;;;5032026;28;20167;-74
2023/10/25 01:10:50;;;;;;;4.00;3.63;;;12.30;99.90;;;;;;4981453;28;20296;-74
2023/10/25 01:13:17;;;;;;;4.10;3.70;;;12.30;99.90;;;;;;4997722;28;20414;-73
2023/10/25 01:15:42;;;;;;;3.70;2.90;;;12.30;99.90;;;;;;5014542;28;20417;-73
2023/10/25 01:18:09;;;;;;;3.17;2.80;;;12.20;99.90;;;;;;5014118;28;20414;-73
2023/10/25 01:20:35;;;;;;;2.83;2.50;;;12.20;99.90;;;;;;5031680;28;20200;-73
2023/10/25 01:23:00;;;;;;;3.13;2.93;;;12.30;99.90;;;;;;5014078;28;20453;-74
2023/10/25 01:25:26;;;;;;;4.60;4.20;;;12.30;99.90;;;;;;5032201;28;20402;-73
2023/10/25 01:27:51;;;;;;;3.20;2.90;;;12.30;99.90;;;;;;5014646;28;20179;-74
2023/10/25 01:30:17;;;;;;;4.33;3.23;;;12.30;99.90;;;;;;5032022;28;20646;-73
2023/10/25 01:32:43;;;;;;;3.70;2.73;;;12.30;99.90;;;;;;4997637;28;20645;-74
2023/10/25 01:35:10;;;;;;;3.70;3.30;;;12.30;99.90;;;;;;5014096;28;20214;-73
2023/10/25 01:37:36;;;;;;;3.97;3.67;;;12.20;99.90;;;;;;5013979;28;20195;-74
2023/10/25 01:40:03;;;;;;;4.80;4.40;;;12.20;99.90;;;;;;5013807;28;20432;-74
2023/10/25 01:42:29;;;;;;;4.47;4.07;;;12.20;99.90;;;;;;5031936;28;20250;-73
2023/10/25 01:44:55;;;;;;;4.30;3.90;;;12.30;99.90;;;;;;5014404;28;20861;-73
2023/10/25 01:47:20;;;;;;;7.57;4.67;;;12.30;99.90;;;;;;4997455;28;20505;-73
2023/10/25 01:49:46;;;;;;;4.90;4.50;;;12.30;99.90;;;;;;5013637;28;20171;-73
2023/10/25 01:52:11;;;;;;;5.80;5.30;;;12.30;99.90;;;;;;5016188;28;20624;-72
2023/10/25 01:54:37;;;;;;;4.20;3.90;;;12.20;99.90;;;;;;5001704;28;20530;-74
2023/10/25 01:57:03;;;;;;;4.60;4.20;;;12.10;99.90;;;;;;5017459;28;20237;-74
2023/10/25 01:59:29;;;;;;;4.80;4.50;;;12.10;99.90;;;;;;5017273;28;20175;-73
2023/10/25 02:01:54;;;;;;;5.83;3.53;;;12.10;99.90;;;;;;5035179;28;20187;-73
2023/10/25 02:04:20;;;;;;;3.97;3.67;;;12.00;99.90;;;;;;5017279;28;20921;-73
2023/10/25 02:06:51;;;;;;;4.23;3.93;;;11.90;99.90;;;;;;5017328;28;20637;-73
2023/10/25 02:09:17;;;;;;;5.00;4.43;;;11.90;99.90;;;;;;5017320;28;20182;-73
2023/10/25 02:11:43;;;;;;;4.80;4.40;;;12.00;99.90;;;;;;5050851;22;20477;-74
2023/10/25 02:14:08;;;;;;;5.83;5.33;;;12.00;99.90;;;;;;5028149;28;20802;-75
2023/10/25 02:16:34;;;;;;;4.00;3.70;;;12.00;99.90;;;;;;5042854;28;20196;-74
2023/10/25 02:19:00;;;;;;;5.87;4.30;;;12.00;99.90;;;;;;5019097;28;20540;-74
2023/10/25 02:21:25;;;;;;;4.47;4.07;;;12.00;99.90;;;;;;5036133;28;20560;-74
2023/10/25 02:23:53;;;;;;;4.70;4.30;;;12.00;99.90;;;;;;5018461;28;20661;-74
2023/10/25 02:26:19;;;;;;;3.80;3.50;;;12.00;99.90;;;;;;5018066;28;20173;-74
2023/10/25 02:28:44;;;;;;;3.67;3.37;;;12.00;99.90;;;;;;5017075;28;20911;-75
2023/10/25 02:31:10;;;;;;;3.87;3.57;;;12.00;99.90;;;;;;5017828;28;20445;-74
2023/10/25 02:33:36;;;;;;;6.33;3.90;;;12.00;99.90;;;;;;5017989;28;20262;-74
2023/10/25 02:36:01;;;;;;;3.93;3.40;;;12.00;99.90;;;;;;5035552;28;20615;-74
2023/10/25 02:38:27;;;;;;;3.33;2.90;;;12.10;99.90;;;;;;5035410;28;20417;-74
2023/10/25 02:40:53;;;;;;;3.50;3.20;;;12.10;99.90;;;;;;5017714;28;20275;-74
2023/10/25 02:43:19;;;;;;;5.43;3.20;;;12.10;99.90;;;;;;5017717;28;20164;-73
2023/10/25 02:45:44;;;;;;;3.63;3.33;;;12.10;99.90;;;;;;5017838;28;20418;-73
2023/10/25 02:48:13;;;;;;;3.40;2.97;;;12.10;99.90;;;;;;5017610;28;20213;-73
2023/10/25 02:50:39;;;;;;;5.03;3.47;;;12.10;99.90;;;;;;5017404;28;20184;-74
2023/10/25 02:53:04;;;;;;;5.97;2.93;;;12.00;99.90;;;;;;5017474;28;20406;-73
2023/10/25 02:55:31;;;;;;;4.40;2.53;;;12.00;99.90;;;;;;5017307;28;20636;-73
2023/10/25 02:57:57;;;;;;;3.43;2.60;;;12.00;99.90;;;;;;5017352;28;20620;-74
2023/10/25 03:00:23;;;;;;;3.90;3.60;;;12.00;99.90;;;;;;5017094;28;20429;-74
2023/10/25 03:02:49;;;;;;;5.80;2.67;;;11.90;99.90;;;;;;5017115;28;20163;-74
2023/10/25 03:05:14;;;;;;;4.10;3.80;;;11.90;99.90;;;;;;5017710;28;20408;-74
2023/10/25 03:07:40;;;;;;;2.80;2.60;;;12.00;99.90;;;;;;5035418;28;20210;-74
2023/10/25 03:10:06;;;;;;;2.30;2.03;;;12.00;99.90;;;;;;5016827;28;20538;-74
2023/10/25 03:12:32;;;;;;;2.80;2.60;;;12.00;99.90;;;;;;5035290;28;20166;-74
2023/10/25 03:14:58;;;;;;;3.30;2.93;;;11.90;99.90;;;;;;5017010;28;20416;-74
2023/10/25 03:17:26;;;;;;;2.50;2.30;;;11.90;99.90;;;;;;5016831;28;20535;-74
2023/10/25 03:19:51;;;;;;;3.87;3.57;;;11.80;99.90;;;;;;5016923;28;20400;-74
2023/10/25 03:22:17;;;;;;;3.50;3.20;;;11.80;99.90;;;;;;5016826;28;20437;-74
2023/10/25 03:24:42;;;;;;;2.80;2.60;;;11.80;99.90;;;;;;5016880;28;20543;-73
2023/10/25 03:27:08;;;;;;;3.43;2.40;;;11.70;99.90;;;;;;5017866;28;20256;-74
2023/10/25 03:29:37;;;;;;;3.00;2.80;;;11.70;99.90;;;;;;5017104;28;20171;-74
2023/10/25 03:32:03;;;;;;;3.10;2.70;;;11.70;99.90;;;;;;5016650;28;20201;-73
2023/10/25 03:34:29;;;;;;;3.30;3.10;;;11.70;99.90;;;;;;5016458;28;20925;-75
2023/10/25 03:36:55;;;;;;;4.00;3.70;;;11.80;99.90;;;;;;5016735;28;20537;-73
2023/10/25 03:39:21;;;;;;;2.90;2.70;;;11.70;99.90;;;;;;5016530;28;20511;-73
2023/10/25 03:41:46;;;;;;;2.43;2.23;;;11.70;99.90;;;;;;5016322;28;20430;-74
2023/10/25 03:44:13;;;;;;;3.30;3.00;;;11.60;99.90;;;;;;5016518;28;20178;-74
2023/10/25 03:46:38;;;;;;;6.80;5.43;;;11.50;99.90;;;;;;5016395;28;20268;-74
2023/10/25 03:49:04;;;;;;;3.73;3.43;;;11.30;99.90;;;;;;5016375;28;20485;-74
2023/10/25 03:51:31;;;;;;;3.50;3.20;;;11.30;99.90;;;;;;5016228;28;20201;-74
2023/10/25 03:53:56;;;;;;;4.43;4.03;;;11.30;99.90;;;;;;5016225;28;20493;-74
2023/10/25 03:56:22;;;;;;;4.57;4.17;;;11.20;99.90;;;;;;5016321;28;20529;-74
2023/10/25 03:58:48;;;;;;;5.13;4.63;;;10.90;99.90;;;;;;5016144;28;20173;-74
2023/10/25 04:01:14;;;;;;;6.70;6.07;;;10.90;99.90;;;;;;5016149;28;20425;-74
2023/10/25 04:03:39;;;;;;;5.70;5.10;;;11.10;99.90;;;;;;5016395;28;20171;-73
2023/10/25 04:06:07;;;;;;;4.90;4.50;;;11.10;99.90;;;;;;5016105;28;20497;-74
2023/10/25 04:08:33;;;;;;;6.23;5.73;;;11.20;99.90;;;;;;5016026;28;20282;-74
2023/10/25 04:10:59;;;;;;;6.90;6.30;;;11.20;99.90;;;;;;5033473;28;20443;-74
2023/10/25 04:13:25;;;;;;;5.70;5.27;;;11.10;99.90;;;;;;5015668;28;20667;-74
2023/10/25 04:16:01;;;;;;;6.70;6.10;;;11.20;99.90;;;;;;5015622;28;20778;-74
2023/10/25 04:18:29;;;;;;;8.23;7.53;;;11.00;99.90;;;;;;5015731;28;20579;-74
2023/10/25 04:20:56;;;;;;;6.53;5.93;;;10.90;99.90;;;;;;5015385;28;20436;-74
2023/10/25 04:23:23;;;;;;;6.33;5.83;;;10.90;99.90;;;;;;5015921;28;20406;-74
2023/10/25 04:25:49;;;;;;;6.13;5.63;;;10.90;99.90;;;;;;5015683;28;20417;-74
2023/10/25 04:28:18;;;;;;;7.80;6.90;;;10.90;99.90;;;;;;5015675;28;20402;-73
2023/10/25 04:30:44;;;;;;;8.63;7.93;;;11.00;99.90;;;;;;5015526;28;20444;-74
2023/10/25 04:33:11;;;;;;;6.23;5.73;;;11.00;99.90;;;;;;5015555;28;20421;-74
2023/10/25 04:35:36;;;;;;;6.00;5.50;;;10.90;99.90;;;;;;5015035;28;20407;-74
2023/10/25 04:38:02;;;;;;;6.47;5.87;;;10.90;99.90;;;;;;5033224;28;20994;-74
2023/10/25 04:40:28;;;;;;;4.97;4.57;;;10.70;99.90;;;;;;5015128;28;20692;-73
2023/10/25 04:42:53;;;;;;;4.50;4.10;;;10.80;99.90;;;;;;5033467;28;20242;-74
2023/10/25 04:45:20;;;;;;;5.83;5.33;;;10.70;99.90;;;;;;5015435;28;20172;-74
2023/10/25 04:47:46;;;;;;;6.23;5.50;;;10.90;99.90;;;;;;5015419;28;20207;-74
2023/10/25 04:50:11;;;;;;;5.40;5.00;;;10.90;99.90;;;;;;5015295;28;20410;-74
2023/10/25 04:52:37;;;;;;;5.97;5.47;;;10.90;99.90;;;;;;5015288;28;20769;-72
2023/10/25 04:55:03;;;;;;;6.60;6.00;;;10.80;99.90;;;;;;5015298;28;20274;-73
2023/10/25 04:57:29;;;;;;;6.63;6.03;;;10.80;99.90;;;;;;5015189;28;20294;-73
2023/10/25 04:59:55;;;;;;;7.17;6.63;;;10.50;99.90;;;;;;5015107;28;20550;-73
2023/10/25 05:02:20;;;;;;;6.13;5.63;;;10.50;99.90;;;;;;5015087;28;20195;-74
2023/10/25 05:04:47;;;;;;;6.60;5.90;;;10.50;99.90;;;;;;5015165;28;20171;-74
2023/10/25 05:07:13;;;;;;;6.33;5.83;;;10.40;99.90;;;;;;5015104;28;20197;-73
2023/10/25 05:09:39;;;;;;;7.73;7.00;;;10.40;99.90;;;;;;5015098;28;20411;-74
2023/10/25 05:12:08;;;;;;;7.23;5.87;;;10.30;99.90;;;;;;5015072;28;21052;-74
2023/10/25 05:14:35;;;;;;;6.03;5.43;;;10.40;99.90;;;;;;5015128;28;20172;-74
2023/10/25 05:17:06;;;;;;;6.67;6.07;;;10.40;99.90;;;;;;5032559;28;20446;-73
2023/10/25 05:19:32;;;;;;;5.50;5.00;;;10.40;99.90;;;;;;5015065;28;20509;-74
2023/10/25 05:22:04;;;;;;;7.00;6.40;;;10.40;99.90;;;;;;5015325;28;20429;-74
2023/10/25 05:24:30;;;;;;;7.80;7.00;;;10.40;99.90;;;;;;5014952;28;20409;-73
2023/10/25 05:26:56;;;;;;;7.83;6.97;;;10.40;99.90;;;;;;5018605;28;20996;-73
2023/10/25 05:29:22;;;;;;;7.53;6.83;;;10.40;99.90;;;;;;5036688;28;20160;-73
2023/10/25 05:31:47;;;;;;;6.33;5.83;;;10.30;99.90;;;;;;5036479;28;20200;-74
2023/10/25 05:34:13;;;;;;;7.17;6.57;;;10.50;99.90;;;;;;5018829;28;20410;-74
2023/10/25 05:36:39;;;;;;;7.57;6.73;;;10.40;99.90;;;;;;5003407;28;20201;-73
2023/10/25 05:39:06;;;;;;;6.17;5.57;;;10.40;99.90;;;;;;5036689;28;20673;-73
2023/10/25 05:41:36;;;;;;;7.00;6.40;;;10.50;99.90;;;;;;5036720;28;20191;-74
2023/10/25 05:44:20;;;;;;;6.23;5.60;;;10.50;99.90;;;;;;5019174;28;20400;-74
2023/10/25 05:46:45;;;;;;;6.90;6.30;;;10.50;99.90;;;;;;5018717;28;20901;-74
2023/10/25 05:49:11;;;;;;;6.93;6.23;;;10.50;99.90;;;;;;5036512;28;20404;-74
2023/10/25 05:51:37;;;;;;;5.57;5.00;;;10.60;99.90;;;;;;5018255;28;20572;-74
2023/10/25 05:54:03;;;;;;;7.93;7.23;;;10.60;99.90;;;;;;5018637;28;20171;-74
2023/10/25 05:56:29;;;;;;;5.70;5.20;;;10.60;99.90;;;;;;5019161;28;20801;-73
2023/10/25 05:58:56;;;;;;;123.13;78.00;;;10.70;99.90;;;;;;5012842;28;20402;-74
2023/10/25 06:01:50;;;;;;;7.40;6.70;;;10.70;99.90;;;;;;5028965;28;20488;-74
2023/10/25 06:04:19;;;;;;;6.53;5.97;;;10.70;99.90;;;;;;5037163;28;20399;-74
2023/10/25 06:06:45;;;;;;;5.93;5.20;;;10.70;99.90;;;;;;5046918;28;20943;-73
2023/10/25 06:09:11;;;;;;;5.93;5.40;;;10.80;99.90;;;;;;5028764;28;20402;-74
2023/10/25 06:11:39;;;;;;;9.43;6.57;;;10.80;99.90;;;;;;5041138;28;20441;-74
2023/10/25 06:14:06;;;;;;;6.13;5.63;;;10.80;99.90;;;;;;5002389;28;20402;-73
2023/10/25 06:16:32;;;;;;;6.43;5.47;;;10.80;99.90;;;;;;5018141;28;20500;-74
2023/10/25 06:18:57;;;;;;;7.87;5.93;;;10.80;99.90;;;;;;5018025;28;20399;-74
2023/10/25 06:21:23;;;;;;;6.13;5.63;;;10.90;99.90;;;;;;5035840;28;21019;-74
2023/10/25 06:23:51;;;;;;;5.93;5.43;;;10.90;99.90;;;;;;5035858;28;20176;-74
2023/10/25 06:26:17;;;;;;;5.63;5.13;;;11.00;99.90;;;;;;5035742;28;20213;-73
2023/10/25 06:28:43;;;;;;;6.10;5.50;;;10.80;99.90;;;;;;5035787;28;20400;-71
2023/10/25 06:31:14;;;;;;;6.57;5.90;;;10.90;99.90;;;;;;5017973;28;20477;-72
2023/10/25 06:33:41;;;;;;;5.30;4.80;;;10.90;99.90;;;;;;5010958;28;20187;-73
2023/10/25 06:36:07;;;;;;;5.93;5.43;;;10.90;99.90;;;;;;5026261;28;20437;-73
2023/10/25 06:38:33;;;;;;;5.80;5.07;;;10.80;99.90;;;;;;5024644;28;20409;-72
2023/10/25 06:41:00;;;;;;;5.40;4.90;;;10.90;99.90;;;;;;5025550;28;20445;-71
2023/10/25 06:43:29;;;;;;;7.03;6.40;;;10.90;99.90;;;;;;5008120;28;20493;-72
2023/10/25 06:45:55;;;;;;;5.70;5.20;;;10.90;99.90;;;;;;4991672;28;20419;-72
2023/10/25 06:48:20;;;;;;;6.90;6.10;;;11.00;99.90;;;;;;5026376;28;21011;-76
2023/10/25 06:50:46;;;;;;;6.60;6.00;;;10.90;99.90;;;;;;5008844;28;20477;-75
2023/10/25 06:53:13;;;;;;;6.07;4.70;;;10.80;99.90;;;;;;5009266;28;20171;-76
2023/10/25 06:55:38;;;;;;;5.87;5.37;;;10.90;99.90;;;;;;4991485;28;20416;-75
2023/10/25 06:58:04;;;;;;;6.37;5.77;;;11.00;99.90;;;;;;5024777;28;20450;-75
2023/10/25 07:00:30;;;;;;;5.37;4.97;;;11.10;99.90;;;;;;5025589;28;20777;-74
2023/10/25 07:03:02;;;;;;;6.30;5.07;;;11.30;99.90;;;;;;5025749;28;20910;-73
2023/10/25 07:05:29;;;;;;;5.60;5.07;;;11.30;99.90;;;;;;5024802;28;20408;-76
2023/10/25 07:07:55;;;;;;;5.40;4.90;;;11.40;99.90;;;;;;5024740;28;20462;-71
2023/10/25 07:10:22;;;;;;;5.03;4.63;;;11.40;99.90;;;;;;5007843;28;21047;-72
2023/10/25 07:12:48;;;;;;;4.80;4.43;;;11.40;99.90;;;;;;5034091;28;20493;-72
2023/10/25 07:15:14;;;;;;;4.93;4.50;;;11.40;99.90;;;;;;5035062;28;20493;-72
2023/10/25 07:17:41;;;;;;;5.70;5.20;;;11.40;99.90;;;;;;5016130;28;20729;-73
2023/10/25 07:20:08;;;;;;;4.10;3.77;;;11.30;99.90;;;;;;5017013;28;20410;-72
2023/10/25 07:22:33;;;;;;;4.77;4.40;;;11.40;99.90;;;;;;5034609;28;20400;-73
2023/10/25 07:24:59;;;;;;;4.80;4.40;;;11.50;99.90;;;;;;5017049;28;20532;-74
2023/10/25 07:27:25;;;;;;;5.43;4.27;;;11.50;99.90;;;;;;5017786;28;20265;-73
2023/10/25 07:29:50;;;;;;;4.93;4.53;;;11.60;99.90;;;;;;5017054;28;20684;-75
2023/10/25 07:32:16;;;;;;;4.80;4.40;;;11.70;99.90;;;;;;5034547;28;20183;-73
2023/10/25 07:34:42;;;;;;;4.77;4.37;;;11.70;99.90;;;;;;5000836;28;20640;-73
2023/10/25 07:37:08;;;;;;;4.93;4.53;;;11.80;99.90;;;;;;5034620;28;20195;-74
2023/10/25 07:39:33;;;;;;;5.17;4.70;;;11.90;99.90;;;;;;5034489;28;20406;-72
2023/10/25 07:41:59;;;;;;;6.10;5.60;;;11.90;99.90;;;;;;5034216;28;20619;-74
2023/10/25 07:44:25;;;;;;;5.07;4.67;;;12.10;99.90;;;;;;5017002;28;20254;-75
2023/10/25 07:46:50;;;;;;;5.07;4.67;;;12.10;99.90;;;;;;5000602;28;20178;-75
2023/10/25 07:49:16;;;;;;;4.60;4.20;;;12.10;99.90;;;;;;5015910;28;20171;-75
2023/10/25 07:51:41;;;;;;;5.43;5.00;;;12.10;99.90;;;;;;5034494;28;20223;-75
2023/10/25 07:54:07;;;;;;;5.63;5.10;;;12.10;99.90;;;;;;5034326;28;20251;-75
2023/10/25 07:56:33;;;;;;;5.60;5.10;;;12.20;99.90;;;;;;5034365;28;20657;-75
2023/10/25 07:58:58;;;;;;;5.27;4.80;;;12.20;99.90;;;;;;5039432;28;20178;-77
2023/10/25 08:01:24;;;;;;;5.47;4.97;;;12.30;99.90;;;;;;5016500;28;20196;-72
2023/10/25 08:03:50;;;;;;;5.10;4.70;;;12.30;99.90;;;;;;4999907;28;20563;-75
2023/10/25 08:06:15;;;;;;;5.77;5.27;;;12.30;99.90;;;;;;5033824;28;20175;-75
2023/10/25 08:08:41;;;;;;;4.97;4.47;;;12.40;99.90;;;;;;5016327;28;20603;-76
2023/10/25 08:11:07;;;;;;;4.37;4.07;;;12.60;99.90;;;;;;5032640;23;20678;-77
2023/10/25 08:13:35;;;;;;;5.23;4.83;;;12.60;99.90;;;;;;4995392;28;20417;-77
2023/10/25 08:16:02;;;;;;;5.63;5.23;;;12.60;99.90;;;;;;4995335;28;20929;-77
2023/10/25 08:18:29;;;;;;;5.60;5.00;;;12.70;99.90;;;;;;4995456;28;20410;-77
2023/10/25 08:20:55;;;;;;;5.50;5.03;;;12.70;99.90;;;;;;5017407;28;20840;-73
2023/10/25 08:23:21;;;;;;;6.20;4.30;;;12.60;99.90;;;;;;5032725;28;20747;-73
2023/10/25 08:25:47;;;;;;;4.93;4.30;;;12.80;99.90;;;;;;4998438;28;20421;-75
2023/10/25 08:28:12;;;;;;;6.30;4.63;;;13.00;99.90;;;;;;5014318;28;20163;-73
2023/10/25 08:30:38;;;;;;;4.03;3.70;;;13.20;99.90;;;;;;4998168;28;20176;-71
2023/10/25 08:33:03;;;;;;;5.17;4.70;;;13.20;99.90;;;;;;5014433;28;20520;-71
2023/10/25 08:35:29;;;;;;;5.00;4.60;;;13.30;99.90;;;;;;4997598;28;20557;-73
2023/10/25 08:37:55;;;;;;;4.10;3.80;;;13.50;99.90;;;;;;5032389;28;20188;-72
2023/10/25 08:40:20;;;;;;;4.93;4.53;;;13.50;99.90;;;;;;5014164;28;20614;-70
2023/10/25 08:42:46;;;;;;;6.13;4.10;;;13.70;99.90;;;;;;4981835;28;20259;-73
2023/10/25 08:45:14;;;;;;;4.63;4.20;;;13.80;99.90;;;;;;5032129;28;20165;-74
2023/10/25 08:47:40;;;;;;;6.00;4.50;;;13.70;99.90;;;;;;5014394;28;20499;-71
2023/10/25 08:50:06;;;;;;;6.13;4.47;;;13.70;99.90;;;;;;5014387;28;20407;-73
2023/10/25 08:52:35;;;;;;;4.40;4.10;;;13.50;99.90;;;;;;5013988;28;20445;-74
2023/10/25 08:55:01;;;;;;;6.23;5.63;;;13.40;99.90;;;;;;4982317;28;20413;-71
2023/10/25 08:57:27;;;;;;;6.43;4.60;;;13.40;99.90;;;;;;5032371;28;20973;-73
2023/10/25 08:59:53;;;;;;;4.57;4.17;;;13.60;99.90;;;;;;5013993;28;20422;-71
2023/10/25 09:02:18;;;;;;;4.80;4.40;;;13.80;99.90;;;;;;4998088;28;20787;-72
2023/10/25 09:04:58;;;;;;;6.33;5.23;;;13.90;99.90;;;;;;5032372;28;20250;-74
2023/10/25 09:07:31;;;;;;;9.00;4.60;;;13.70;99.90;;;;;;5014135;28;20221;-75
2023/10/25 09:09:58;;;;;;;5.10;4.60;;;13.70;99.90;;;;;;5014237;28;20427;-71
2023/10/25 09:12:24;;;;;;;5.50;5.00;;;13.60;99.90;;;;;;5014118;28;20448;-70
2023/10/25 09:14:50;;;;;;;4.70;4.30;;;13.60;99.90;;;;;;5014023;28;20428;-72
2023/10/25 09:17:17;;;;;;;6.10;5.50;;;13.70;99.90;;;;;;5032111;28;20449;-73
2023/10/25 09:19:48;;;;;;;4.90;4.50;;;13.70;99.90;;;;;;5031740;28;20417;-72
2023/10/25 09:22:27;;;;;;;5.17;4.77;;;13.70;99.90;;;;;;4997682;28;20444;-71
2023/10/25 09:24:54;;;;;;;5.30;4.70;;;13.70;99.90;;;;;;5014630;28;20491;-71
2023/10/25 09:27:21;;;;;;;4.10;3.70;;;13.80;99.90;;;;;;5014164;28;20411;-71
2023/10/25 09:29:47;;;;;;;7.10;4.10;;;13.90;99.90;;;;;;5014086;28;20420;-74
2023/10/25 09:32:13;;;;;;;4.70;4.30;;;14.00;99.90;;;;;;5014076;28;20448;-76
2023/10/25 09:34:39;;;;;;;9.20;5.20;;;14.00;99.90;;;;;;5031807;28;20414;-76
2023/10/25 09:37:06;;;;;;;5.80;5.20;;;14.10;99.90;;;;;;5031846;28;20200;-74
2023/10/25 09:39:35;;;;;;;5.57;5.07;;;14.20;99.90;;;;;;4997973;28;20178;-72
2023/10/25 09:42:02;;;;;;;4.80;4.00;;;14.10;99.90;;;;;;5013908;28;20444;-74
2023/10/25 09:44:34;;;;;;;4.50;3.73;;;14.20;99.90;;;;;;4999366;28;20489;-75
2023/10/25 09:47:00;;;;;;;4.00;3.70;;;14.30;99.90;;;;;;5013824;28;20413;-75
2023/10/25 09:49:31;;;;;;;4.70;4.07;;;14.40;99.90;;;;;;5013608;28;20432;-75
2023/10/25 09:52:07;;;;;;;4.73;4.43;;;14.40;99.90;;;;;;5013477;28;20448;-74
2023/10/25 09:54:37;;;;;;;4.47;4.07;;;14.40;99.90;;;;;;5013569;28;20420;-75
2023/10/25 09:57:07;;;;;;;4.50;4.10;;;14.50;99.90;;;;;;5031203;28;20447;-73
2023/10/25 09:59:33;;;;;;;4.23;3.80;;;14.60;99.90;;;;;;5013667;28;20452;-73
2023/10/25 10:02:06;;;;;;;4.20;3.70;;;14.70;99.90;;;;;;5013595;28;20432;-73
2023/10/25 10:04:55;;;;;;;4.23;3.87;;;14.80;99.90;;;;;;5013651;28;20420;-71
2023/10/25 10:07:49;;;;;;;4.30;3.90;;;15.00;99.90;;;;;;5013423;28;20512;-71
2023/10/25 10:10:25;;;;;;;4.07;3.67;;;14.70;99.90;;;;;;4999149;28;20434;-72
2023/10/25 10:12:51;;;;;;;3.90;3.60;;;14.90;99.90;;;;;;4999792;28;20439;-70
2023/10/25 10:15:19;;;;;;;4.70;3.70;;;15.10;99.90;;;;;;5001662;28;20774;-72
2023/10/25 10:17:45;;;;;;;3.93;3.63;;;15.10;99.90;;;;;;5017594;28;20996;-71
2023/10/25 10:20:28;;;;;;;5.20;4.10;;;15.10;99.90;;;;;;5017117;28;20785;-72
2023/10/25 10:23:05;;;;;;;10.13;3.63;;;15.30;99.90;;;;;;5001411;28;20436;-71
2023/10/25 10:25:47;;;;;;;3.73;3.43;;;15.30;99.90;;;;;;5034591;28;20492;-72
2023/10/25 10:28:16;;;;;;;5.20;3.63;;;15.50;99.90;;;;;;5016509;28;21009;-72
2023/10/25 10:30:42;;;;;;;4.00;3.60;;;15.20;99.90;;;;;;5016943;28;20499;-72
2023/10/25 10:33:12;;;;;;;4.00;3.50;;;15.30;99.90;;;;;;5017364;28;20448;-73
2023/10/25 10:35:47;;;;;;;3.77;3.47;;;15.20;99.90;;;;;;5017687;28;20244;-73
2023/10/25 10:38:13;;;;;;;3.07;2.77;;;15.40;99.90;;;;;;5016612;28;20873;-72
2023/10/25 10:40:39;;;;;;;2.60;2.40;;;15.50;99.90;;;;;;5016189;28;20413;-73
2023/10/25 10:43:06;;;;;;;5.63;3.30;;;15.70;99.90;;;;;;5034600;28;20263;-72
2023/10/25 10:45:32;;;;;;;2.90;2.70;;;15.70;99.90;;;;;;5016348;28;20172;-72
2023/10/25 10:48:06;;;;;;;3.60;3.07;;;15.80;99.90;;;;;;5016532;28;20902;-73
2023/10/25 10:50:32;;;;;;;3.27;3.00;;;15.90;99.90;;;;;;5016170;28;20413;-75
2023/10/25 10:52:59;;;;;;;2.47;2.27;;;15.90;99.90;;;;;;5034096;28;20487;-73
2023/10/25 10:55:25;;;;;;;4.13;2.80;;;16.00;99.90;;;;;;5015980;28;20234;-73
2023/10/25 10:57:52;;;;;;;2.80;2.60;;;16.00;99.90;;;;;;4983965;28;20511;-71
2023/10/25 11:00:18;;;;;;;2.77;2.57;;;16.00;99.90;;;;;;5016298;28;20428;-72
2023/10/25 11:02:48;;;;;;;2.43;2.20;;;16.30;99.90;;;;;;5016287;28;20515;-74
2023/10/25 11:05:19;;;;;;;2.57;2.37;;;16.20;99.90;;;;;;4983672;28;20418;-73
2023/10/25 11:07:47;;;;;;;2.60;2.40;;;16.10;99.90;;;;;;5016479;28;20473;-72
2023/10/25 11:10:13;;;;;;;2.50;2.30;;;16.00;99.90;;;;;;4999759;28;20929;-71
2023/10/25 11:12:39;;;;;;;2.93;2.30;;;16.10;99.90;;;;;;5015716;28;20464;-72
2023/10/25 11:15:05;;;;;;;2.70;2.50;;;16.10;99.90;;;;;;5033974;28;20274;-71
2023/10/25 11:17:34;;;;;;;2.90;2.50;;;16.00;99.90;;;;;;5016268;28;20455;-71
2023/10/25 11:20:01;;;;;;;3.60;2.00;;;15.90;99.90;;;;;;5015905;28;20564;-72
2023/10/25 11:22:30;;;;;;;2.60;2.40;;;16.10;99.90;;;;;;5015893;28;20513;-72
2023/10/25 11:24:57;;;;;;;2.10;1.90;;;16.40;99.90;;;;;;5015660;28;20782;-72
2023/10/25 11:27:28;;;;;;;2.40;2.20;;;16.70;99.90;;;;;;4999333;28;20417;-73
2023/10/25 11:29:54;;;;;;;1.83;1.67;;;16.90;99.90;;;;;;5033615;28;20441;-72
2023/10/25 11:32:19;;;;;;;1.97;1.80;;;17.50;99.90;;;;;;5015589;28;20469;-70
2023/10/25 11:34:47;;;;;;;1.90;1.60;;;18.60;99.90;;;;;;5015432;28;20261;-71
2023/10/25 11:37:12;;;;;;;1.83;1.60;;;19.30;99.90;;;;;;5015861;28;20195;-72
2023/10/25 11:40:14;;;;;;;1.30;1.20;;;19.40;99.90;;;;;;5015477;28;20777;-73
2023/10/25 11:42:40;;;;;;;1.83;1.43;;;19.70;99.90;;;;;;4902608;29;20198;-73
2023/10/25 11:45:07;;;;;;;1.30;1.10;;;19.80;99.90;;;;;;4996324;28;20446;-73
2023/10/25 11:47:33;;;;;;;2.27;1.97;;;19.30;99.90;;;;;;5015479;28;20509;-72
2023/10/25 11:50:00;;;;;;;1.90;1.57;;;18.90;99.90;;;;;;5015164;28;20418;-73
2023/10/25 11:52:28;;;;;;;3.03;1.30;;;18.70;99.90;;;;;;5032885;28;20434;-73
2023/10/25 11:54:57;;;;;;;2.20;1.53;;;18.70;99.90;;;;;;5015391;28;20481;-73
2023/10/25 11:57:24;;;;;;;1.33;1.23;;;19.00;99.90;;;;;;5015801;28;20450;-72
2023/10/25 11:59:51;;;;;;;1.77;1.23;;;19.90;99.90;;;;;;5033317;28;20410;-73
2023/10/25 12:02:20;;;;;;;1.47;1.13;;;22.30;99.90;;;;;;5015575;28;20900;-72
2023/10/25 12:04:47;;;;;;;1.70;1.20;;;22.80;99.90;;;;;;5016057;28;20433;-72
2023/10/25 12:07:12;;;;;;;2.07;1.67;;;22.40;99.90;;;;;;5016065;28;20491;-72
2023/10/25 12:09:39;;;;;;;3.17;1.30;;;21.50;99.90;;;;;;5032811;28;20406;-74
2023/10/25 12:12:05;;;;;;;1.70;1.20;;;20.80;99.90;;;;;;5014878;28;20319;-73
2023/10/25 12:14:31;;;;;;;1.30;1.10;;;20.20;99.90;;;;;;4998574;28;20556;-73
2023/10/25 12:16:58;;;;;;;1.43;1.30;;;19.60;99.90;;;;;;4998983;28;21039;-72
2023/10/25 12:19:24;;;;;;;1.20;1.03;;;19.10;99.90;;;;;;5014560;28;20223;-72
2023/10/25 12:21:56;;;;;;;1.57;1.10;;;18.30;99.90;;;;;;5001331;28;20433;-71
2023/10/25 12:24:27;;;;;;;1.10;1.00;;;18.00;99.90;;;;;;4998959;28;20480;-72
2023/10/25 12:26:53;;;;;;;1.30;0.93;;;17.90;99.90;;;;;;5014511;28;20791;-71
2023/10/25 12:29:20;;;;;;;1.43;1.20;;;17.70;99.90;;;;;;5032305;28;20441;-71
2023/10/25 12:31:46;;;;;;;1.83;1.10;;;17.80;99.90;;;;;;5032408;28;20479;-71
2023/10/25 12:34:12;;;;;;;1.10;0.83;;;17.90;99.90;;;;;;5032245;28;20409;-72
2023/10/25 12:36:38;;;;;;;0.90;0.70;;;17.90;99.90;;;;;;5013960;28;20472;-72
2023/10/25 12:39:04;;;;;;;1.67;1.23;;;18.10;99.90;;;;;;5032069;28;20484;-72
2023/10/25 12:41:30;;;;;;;1.40;1.00;;;18.50;99.90;;;;;;5014451;28;20191;-72
2023/10/25 12:43:56;;;;;;;1.40;0.90;;;18.90;99.90;;;;;;5032303;28;20756;-72
2023/10/25 12:46:21;;;;;;;1.50;1.10;;;19.20;99.90;;;;;;5032268;28;20168;-75